weather station
Area: 7197 km2
The highest point: Čupec (819 m.s.l.)
Total stations: 35
Stations online: 33
Stations offline: 2
Current weather
9°C

Meteorological map - weather stations in Jihomoravský

. The meteorological maps show weather information from WARIO weather stations

Weather stations Jihomoravský

 UpdatesNameStatusTemperatureHumidityWind speedWind direction
21.2.2019 11:50Adamov5.2 °C75.1 %4.6 m/s NW
21.2.2019 11:50Boskovice7.6 °C63.2 %0.7 m/s E
21.2.2019 11:51Brno - Vinohrady7.7 °C57.6 %2.4 m/s NW
21.2.2019 11:51Brno - Komín10.4 °C52.9 %1.0 m/s SW
21.2.2019 11:50Brno-Kníničky11.4 °C55.3 %1.2 m/s NE
21.2.2019 11:51Býkovice7.2 °C77.0 %2.6 m/s E
21.2.2019 11:50Bítov12.7 °C53.1 %2.8 m/s NW
21.2.2019 11:50Drnholec9.2 °C63.3 %3.8 m/s SW
21.2.2019 11:50Lelekovice7.6 °C70.7 %0.0 m/s SE
21.2.2019 11:50Letonice7.6 °C73.0 %2.1 m/s SW
21.2.2019 11:51Hrušovany u Brna10.6 °C56.5 %2.8 m/s N
21.2.2019 11:50Brno7.9 °C65.8 %2.1 m/s W
21.2.2019 11:50Brno-střed9.0 °C64.2 %0.0 m/s S
18.2.2019 15:44Pasohlávky10.9 °C65.3 %1.0 m/s SE
21.2.2019 11:51Višňové9.8 °C65.1 %0.0 m/s W
2.2.2019 15:14Vranov-40.0 °C %1.5 m/s NW
21.2.2019 11:51Meteo B7.2 °C69.6 %1.4 m/s S
21.2.2019 11:51Dolní Dubňany9.4 °C57.2 %2.9 m/s S
21.2.2019 11:50Bzenec9.3 °C61.8 %1.7 m/s SW
21.2.2019 11:51Svatobořice7.2 °C76.6 %0.9 m/s E
21.2.2019 11:51Moravské Bránice8.8 °C70.8 %1.2 m/s NE
21.2.2019 11:50Pohořelice11.3 °C67.2 %1.4 m/s SE
21.2.2019 11:50Brno - Jih7.4 °C67.1 %2.2 m/s NW
21.2.2019 11:50Rousínov7.3 °C71.2 %4.1 m/s NW
21.2.2019 11:51Senorady8.5 °C64.4 %2.4 m/s SW
21.2.2019 11:51Skalice u Znojma12.0 °C56.2 %0.0 m/s N
21.2.2019 11:50Šlapanice7.1 °C69.9 %1.1 m/s NE
21.2.2019 11:50Kuřim7.6 °C70.8 %2.2 m/s W
21.2.2019 11:50Strážnice10.8 °C63.7 %0.0 m/s W
21.2.2019 11:51Strážnice GUMEX6.6 °C70.4 %3.0 m/s NE
21.2.2019 11:51Valtice9.1 °C57.9 %0.0 m/s S
21.2.2019 11:51Veselí nad Moravou9.0 °C61.2 %0.0 m/s S
21.2.2019 11:51Lipov - Vinařství a penzion Kostelanský7.0 °C64.4 %3.3 m/s SW
21.2.2019 11:51Vrbovec12.5 °C51.4 %1.0 m/s E
21.2.2019 11:50Rájec-Jestřebí7.7 °C63.3 %0.7 m/s W
Email notifications
Enter your email address to subscribe to notifications about news at warioweather.com. Your email address will not be used for any purpose other than sending these emails and will not be provided to any third party. The subscription can be ended at any time.
All data are only indicative. The portal administrator has no responsibility for potentially incorrect data and related consequences. Publishing or further sharing of content from www.warioweather.com is only allowed with written consent from WANET s.r.o.